sensor_id;sensor_type;location;lat;lon;timestamp;temperature;humidity
37478;DHT22;23334;54.316;10.182;2022-09-21T00:00:24;6.30;99.90
37478;DHT22;23334;54.316;10.182;2022-09-21T00:05:16;6.20;99.90
37478;DHT22;23334;54.316;10.182;2022-09-21T00:07:43;6.20;99.90
37478;DHT22;23334;54.316;10.182;2022-09-21T00:12:35;6.20;99.90
37478;DHT22;23334;54.316;10.182;2022-09-21T00:15:06;6.20;99.90
37478;DHT22;23334;54.316;10.182;2022-09-21T00:17:34;6.30;99.90
37478;DHT22;23334;54.316;10.182;2022-09-21T00:19:59;6.20;99.90
37478;DHT22;23334;54.316;10.182;2022-09-21T00:22:33;6.20;99.90
37478;DHT22;23334;54.316;10.182;2022-09-21T00:27:29;6.20;99.90
37478;DHT22;23334;54.316;10.182;2022-09-21T00:29:57;6.10;99.90
37478;DHT22;23334;54.316;10.182;2022-09-21T00:32:25;6.20;99.90
37478;DHT22;23334;54.316;10.182;2022-09-21T00:34:51;6.10;99.90
37478;DHT22;23334;54.316;10.182;2022-09-21T00:37:18;6.10;99.90
37478;DHT22;23334;54.316;10.182;2022-09-21T00:39:43;6.10;99.90
37478;DHT22;23334;54.316;10.182;2022-09-21T00:42:13;6.10;99.90
37478;DHT22;23334;54.316;10.182;2022-09-21T00:44:41;6.10;99.90
37478;DHT22;23334;54.316;10.182;2022-09-21T00:47:11;6.10;99.90
37478;DHT22;23334;54.316;10.182;2022-09-21T00:49:38;6.10;99.90
37478;DHT22;23334;54.316;10.182;2022-09-21T00:52:05;6.00;99.90
37478;DHT22;23334;54.316;10.182;2022-09-21T00:54:36;5.90;99.90
37478;DHT22;23334;54.316;10.182;2022-09-21T00:57:04;5.80;99.90
37478;DHT22;23334;54.316;10.182;2022-09-21T00:59:35;5.80;99.90
37478;DHT22;23334;54.316;10.182;2022-09-21T01:02:02;5.80;99.90
37478;DHT22;23334;54.316;10.182;2022-09-21T01:04:28;5.80;99.90
37478;DHT22;23334;54.316;10.182;2022-09-21T01:06:55;5.80;99.90
37478;DHT22;23334;54.316;10.182;2022-09-21T01:09:22;5.80;99.90
37478;DHT22;23334;54.316;10.182;2022-09-21T01:12:10;5.80;99.90
37478;DHT22;23334;54.316;10.182;2022-09-21T01:14:49;5.80;99.90
37478;DHT22;23334;54.316;10.182;2022-09-21T01:20:33;5.80;99.90
37478;DHT22;23334;54.316;10.182;2022-09-21T01:34:47;5.70;99.90
37478;DHT22;23334;54.316;10.182;2022-09-21T01:37:19;5.60;99.90
37478;DHT22;23334;54.316;10.182;2022-09-21T01:39:50;5.60;99.90
37478;DHT22;23334;54.316;10.182;2022-09-21T01:42:18;5.60;99.90
37478;DHT22;23334;54.316;10.182;2022-09-21T01:44:45;5.60;99.90
37478;DHT22;23334;54.316;10.182;2022-09-21T01:49:42;5.60;99.90
37478;DHT22;23334;54.316;10.182;2022-09-21T01:52:20;5.50;99.90
37478;DHT22;23334;54.316;10.182;2022-09-21T01:54:53;5.60;99.90
37478;DHT22;23334;54.316;10.182;2022-09-21T01:57:27;5.60;99.90
37478;DHT22;23334;54.316;10.182;2022-09-21T01:59:58;5.50;99.90
37478;DHT22;23334;54.316;10.182;2022-09-21T02:02:38;5.40;99.90
37478;DHT22;23334;54.316;10.182;2022-09-21T02:05:06;5.60;99.90
37478;DHT22;23334;54.316;10.182;2022-09-21T02:07:32;5.60;99.90
37478;DHT22;23334;54.316;10.182;2022-09-21T02:09:59;5.50;99.90
37478;DHT22;23334;54.316;10.182;2022-09-21T02:12:26;5.40;99.90
37478;DHT22;23334;54.316;10.182;2022-09-21T02:14:52;5.50;99.90
37478;DHT22;23334;54.316;10.182;2022-09-21T02:17:41;5.40;99.90
37478;DHT22;23334;54.316;10.182;2022-09-21T02:20:19;5.40;99.90
37478;DHT22;23334;54.316;10.182;2022-09-21T02:23:17;5.40;99.90
37478;DHT22;23334;54.316;10.182;2022-09-21T02:26:06;5.40;99.90
37478;DHT22;23334;54.316;10.182;2022-09-21T02:28:46;5.30;99.90
37478;DHT22;23334;54.316;10.182;2022-09-21T02:34:03;5.30;99.90
37478;DHT22;23334;54.316;10.182;2022-09-21T02:36:42;5.30;99.90
37478;DHT22;23334;54.316;10.182;2022-09-21T02:39:14;5.20;99.90
37478;DHT22;23334;54.316;10.182;2022-09-21T02:42:00;5.20;99.90
37478;DHT22;23334;54.316;10.182;2022-09-21T02:44:37;5.20;99.90
37478;DHT22;23334;54.316;10.182;2022-09-21T02:47:13;5.20;99.90
37478;DHT22;23334;54.316;10.182;2022-09-21T02:49:50;5.10;99.90
37478;DHT22;23334;54.316;10.182;2022-09-21T02:52:18;5.20;99.90
37478;DHT22;23334;54.316;10.182;2022-09-21T02:54:47;5.10;99.90
37478;DHT22;23334;54.316;10.182;2022-09-21T02:57:16;5.10;99.90
37478;DHT22;23334;54.316;10.182;2022-09-21T02:59:42;5.10;99.90
37478;DHT22;23334;54.316;10.182;2022-09-21T03:02:09;5.10;99.90
37478;DHT22;23334;54.316;10.182;2022-09-21T03:04:35;5.00;99.90
37478;DHT22;23334;54.316;10.182;2022-09-21T03:07:01;5.10;99.90
37478;DHT22;23334;54.316;10.182;2022-09-21T03:09:27;5.10;99.90
37478;DHT22;23334;54.316;10.182;2022-09-21T03:11:53;5.00;99.90
37478;DHT22;23334;54.316;10.182;2022-09-21T03:14:19;5.00;99.90
37478;DHT22;23334;54.316;10.182;2022-09-21T03:21:37;4.90;99.90
37478;DHT22;23334;54.316;10.182;2022-09-21T03:24:02;4.90;99.90
37478;DHT22;23334;54.316;10.182;2022-09-21T03:28:54;4.90;99.90
37478;DHT22;23334;54.316;10.182;2022-09-21T03:33:45;4.80;99.90
37478;DHT22;23334;54.316;10.182;2022-09-21T03:38:37;4.80;99.90
37478;DHT22;23334;54.316;10.182;2022-09-21T03:41:03;4.80;99.90
37478;DHT22;23334;54.316;10.182;2022-09-21T03:48:22;4.70;99.90
37478;DHT22;23334;54.316;10.182;2022-09-21T03:50:47;4.70;99.90
37478;DHT22;23334;54.316;10.182;2022-09-21T03:53:13;4.60;99.90
37478;DHT22;23334;54.316;10.182;2022-09-21T03:55:39;4.70;99.90
37478;DHT22;23334;54.316;10.182;2022-09-21T04:05:24;4.60;99.90
37478;DHT22;23334;54.316;10.182;2022-09-21T04:10:18;4.50;99.90
37478;DHT22;23334;54.316;10.182;2022-09-21T04:12:44;4.50;99.90
37478;DHT22;23334;54.316;10.182;2022-09-21T04:15:15;4.40;99.90
37478;DHT22;23334;54.316;10.182;2022-09-21T04:17:41;4.40;99.90
37478;DHT22;23334;54.316;10.182;2022-09-21T04:20:07;4.40;99.90
37478;DHT22;23334;54.316;10.182;2022-09-21T04:22:34;5.60;99.90
37478;DHT22;23334;54.316;10.182;2022-09-21T04:25:01;4.30;99.90
37478;DHT22;23334;54.316;10.182;2022-09-21T04:27:26;4.40;99.90
37478;DHT22;23334;54.316;10.182;2022-09-21T04:29:52;4.40;99.90
37478;DHT22;23334;54.316;10.182;2022-09-21T04:32:18;4.30;99.90
37478;DHT22;23334;54.316;10.182;2022-09-21T04:34:43;4.30;99.90
37478;DHT22;23334;54.316;10.182;2022-09-21T04:37:09;4.30;99.90
37478;DHT22;23334;54.316;10.182;2022-09-21T04:39:36;4.30;99.90
37478;DHT22;23334;54.316;10.182;2022-09-21T04:42:02;4.30;99.90
37478;DHT22;23334;54.316;10.182;2022-09-21T04:44:28;4.30;99.90
37478;DHT22;23334;54.316;10.182;2022-09-21T04:46:54;4.20;99.90
37478;DHT22;23334;54.316;10.182;2022-09-21T04:49:19;4.30;99.90
37478;DHT22;23334;54.316;10.182;2022-09-21T04:54:11;4.30;99.90
37478;DHT22;23334;54.316;10.182;2022-09-21T04:56:36;4.30;99.90
37478;DHT22;23334;54.316;10.182;2022-09-21T04:59:02;4.30;99.90
37478;DHT22;23334;54.316;10.182;2022-09-21T05:01:28;4.30;99.90
37478;DHT22;23334;54.316;10.182;2022-09-21T05:03:54;4.20;99.90
37478;DHT22;23334;54.316;10.182;2022-09-21T05:06:19;4.20;99.90
37478;DHT22;23334;54.316;10.182;2022-09-21T05:11:29;4.20;99.90
37478;DHT22;23334;54.316;10.182;2022-09-21T05:13:55;4.30;99.90
37478;DHT22;23334;54.316;10.182;2022-09-21T05:16:20;4.30;99.90
37478;DHT22;23334;54.316;10.182;2022-09-21T05:18:46;4.30;99.90
37478;DHT22;23334;54.316;10.182;2022-09-21T05:21:12;4.30;99.90
37478;DHT22;23334;54.316;10.182;2022-09-21T05:23:38;4.30;99.90
37478;DHT22;23334;54.316;10.182;2022-09-21T05:28:31;4.40;99.90
37478;DHT22;23334;54.316;10.182;2022-09-21T05:31:42;4.40;99.90
37478;DHT22;23334;54.316;10.182;2022-09-21T05:34:45;4.50;99.90
37478;DHT22;23334;54.316;10.182;2022-09-21T05:37:35;4.60;99.90
37478;DHT22;23334;54.316;10.182;2022-09-21T05:40:04;4.60;99.90
37478;DHT22;23334;54.316;10.182;2022-09-21T05:42:30;4.60;99.90
37478;DHT22;23334;54.316;10.182;2022-09-21T05:44:56;4.60;99.90
37478;DHT22;23334;54.316;10.182;2022-09-21T05:47:36;4.60;99.90
37478;DHT22;23334;54.316;10.182;2022-09-21T05:50:17;6.90;99.90
37478;DHT22;23334;54.316;10.182;2022-09-21T07:54:48;26.30;99.90
37478;DHT22;23334;54.316;10.182;2022-09-21T07:57:15;26.50;99.90
37478;DHT22;23334;54.316;10.182;2022-09-21T08:02:25;27.00;95.20
37478;DHT22;23334;54.316;10.182;2022-09-21T08:09:44;29.20;86.20
37478;DHT22;23334;54.316;10.182;2022-09-21T08:17:06;29.70;77.80
37478;DHT22;23334;54.316;10.182;2022-09-21T08:21:58;31.70;91.90
37478;DHT22;23334;54.316;10.182;2022-09-21T08:24:23;32.10;89.10
37478;DHT22;23334;54.316;10.182;2022-09-21T08:26:50;32.20;65.20
37478;DHT22;23334;54.316;10.182;2022-09-21T08:29:16;33.50;77.20
37478;DHT22;23334;54.316;10.182;2022-09-21T08:34:08;33.80;50.10
37478;DHT22;23334;54.316;10.182;2022-09-21T08:36:33;33.80;50.90
37478;DHT22;23334;54.316;10.182;2022-09-21T08:44:23;35.40;46.50
37478;DHT22;23334;54.316;10.182;2022-09-21T08:47:17;35.50;68.40
37478;DHT22;23334;54.316;10.182;2022-09-21T08:49:52;36.10;64.10
37478;DHT22;23334;54.316;10.182;2022-09-21T08:52:19;36.00;43.30
37478;DHT22;23334;54.316;10.182;2022-09-21T08:55:06;36.30;49.60
37478;DHT22;23334;54.316;10.182;2022-09-21T08:57:34;36.70;57.70
37478;DHT22;23334;54.316;10.182;2022-09-21T09:00:00;36.70;41.50
37478;DHT22;23334;54.316;10.182;2022-09-21T09:02:45;35.80;57.60
37478;DHT22;23334;54.316;10.182;2022-09-21T09:05:30;35.90;40.30
37478;DHT22;23334;54.316;10.182;2022-09-21T09:10:55;36.70;40.00
37478;DHT22;23334;54.316;10.182;2022-09-21T09:18:48;37.60;38.00
37478;DHT22;23334;54.316;10.182;2022-09-21T09:21:53;37.80;37.10
37478;DHT22;23334;54.316;10.182;2022-09-21T09:24:28;37.80;35.40
37478;DHT22;23334;54.316;10.182;2022-09-21T09:27:03;38.40;34.50
37478;DHT22;23334;54.316;10.182;2022-09-21T09:29:38;37.80;51.20
37478;DHT22;23334;54.316;10.182;2022-09-21T09:32:13;37.80;35.40
37478;DHT22;23334;54.316;10.182;2022-09-21T09:34:49;37.90;32.60
37478;DHT22;23334;54.316;10.182;2022-09-21T09:37:19;37.40;34.10
37478;DHT22;23334;54.316;10.182;2022-09-21T09:39:53;37.20;35.00
37478;DHT22;23334;54.316;10.182;2022-09-21T09:50:26;33.10;39.30
37478;DHT22;23334;54.316;10.182;2022-09-21T09:52:55;32.80;39.90
37478;DHT22;23334;54.316;10.182;2022-09-21T09:55:25;34.30;36.20
37478;DHT22;23334;54.316;10.182;2022-09-21T09:57:54;35.00;37.10
37478;DHT22;23334;54.316;10.182;2022-09-21T10:00:20;35.70;32.90
37478;DHT22;23334;54.316;10.182;2022-09-21T10:07:53;36.40;31.30
37478;DHT22;23334;54.316;10.182;2022-09-21T10:10:22;36.70;30.70
37478;DHT22;23334;54.316;10.182;2022-09-21T10:12:49;36.60;28.90
37478;DHT22;23334;54.316;10.182;2022-09-21T10:15:17;36.30;29.50
37478;DHT22;23334;54.316;10.182;2022-09-21T10:17:46;36.30;30.00
37478;DHT22;23334;54.316;10.182;2022-09-21T10:20:17;36.50;29.70
37478;DHT22;23334;54.316;10.182;2022-09-21T10:22:47;36.80;28.90
37478;DHT22;23334;54.316;10.182;2022-09-21T10:25:18;36.60;29.40
37478;DHT22;23334;54.316;10.182;2022-09-21T10:27:47;35.30;30.60
37478;DHT22;23334;54.316;10.182;2022-09-21T10:32:56;33.00;33.80
37478;DHT22;23334;54.316;10.182;2022-09-21T10:35:21;29.70;37.20
37478;DHT22;23334;54.316;10.182;2022-09-21T10:37:47;28.00;39.90
37478;DHT22;23334;54.316;10.182;2022-09-21T10:42:52;25.80;48.20
37478;DHT22;23334;54.316;10.182;2022-09-21T10:45:22;25.80;46.20
37478;DHT22;23334;54.316;10.182;2022-09-21T10:47:48;25.00;48.50
37478;DHT22;23334;54.316;10.182;2022-09-21T10:53:18;22.60;54.00
37478;DHT22;23334;54.316;10.182;2022-09-21T10:55:59;21.60;56.60
37478;DHT22;23334;54.316;10.182;2022-09-21T10:58:25;20.90;60.90
37478;DHT22;23334;54.316;10.182;2022-09-21T11:00:51;20.20;64.10
37478;DHT22;23334;54.316;10.182;2022-09-21T11:03:41;19.50;68.50
37478;DHT22;23334;54.316;10.182;2022-09-21T11:06:14;18.90;74.70
37478;DHT22;23334;54.316;10.182;2022-09-21T11:08:55;18.50;81.40
37478;DHT22;23334;54.316;10.182;2022-09-21T11:11:36;18.10;86.90
37478;DHT22;23334;54.316;10.182;2022-09-21T11:16:54;17.30;99.40
37478;DHT22;23334;54.316;10.182;2022-09-21T11:19:34;16.90;99.90
37478;DHT22;23334;54.316;10.182;2022-09-21T11:24:59;17.60;99.90
37478;DHT22;23334;54.316;10.182;2022-09-21T11:27:37;17.70;98.10
37478;DHT22;23334;54.316;10.182;2022-09-21T11:30:12;17.90;96.30
37478;DHT22;23334;54.316;10.182;2022-09-21T11:36:08;18.60;95.20
37478;DHT22;23334;54.316;10.182;2022-09-21T11:39:01;18.70;91.60
37478;DHT22;23334;54.316;10.182;2022-09-21T11:41:53;18.40;91.80
37478;DHT22;23334;54.316;10.182;2022-09-21T11:44:48;17.90;95.40
37478;DHT22;23334;54.316;10.182;2022-09-21T11:47:29;17.90;95.40
37478;DHT22;23334;54.316;10.182;2022-09-21T11:50:14;17.70;94.80
37478;DHT22;23334;54.316;10.182;2022-09-21T11:55:40;17.20;95.90
37478;DHT22;23334;54.316;10.182;2022-09-21T12:01:09;17.00;99.50
37478;DHT22;23334;54.316;10.182;2022-09-21T12:03:43;16.90;99.90
37478;DHT22;23334;54.316;10.182;2022-09-21T12:06:14;17.10;98.80
37478;DHT22;23334;54.316;10.182;2022-09-21T12:09:01;17.40;95.70
37478;DHT22;23334;54.316;10.182;2022-09-21T12:11:53;17.70;93.50
37478;DHT22;23334;54.316;10.182;2022-09-21T12:14:36;18.10;91.90
37478;DHT22;23334;54.316;10.182;2022-09-21T12:17:43;18.10;91.60
37478;DHT22;23334;54.316;10.182;2022-09-21T12:20:53;18.50;92.00
37478;DHT22;23334;54.316;10.182;2022-09-21T12:23:27;18.50;89.80
37478;DHT22;23334;54.316;10.182;2022-09-21T12:25:56;18.60;86.90
37478;DHT22;23334;54.316;10.182;2022-09-21T12:28:30;18.70;81.90
37478;DHT22;23334;54.316;10.182;2022-09-21T12:31:01;18.70;78.80
37478;DHT22;23334;54.316;10.182;2022-09-21T12:33:42;18.60;81.40
37478;DHT22;23334;54.316;10.182;2022-09-21T12:36:36;18.50;78.60
37478;DHT22;23334;54.316;10.182;2022-09-21T12:39:10;18.60;82.00
37478;DHT22;23334;54.316;10.182;2022-09-21T12:41:59;18.70;83.30
37478;DHT22;23334;54.316;10.182;2022-09-21T12:44:35;18.50;72.90
37478;DHT22;23334;54.316;10.182;2022-09-21T12:47:19;18.50;73.30
37478;DHT22;23334;54.316;10.182;2022-09-21T12:49:50;18.50;75.60
37478;DHT22;23334;54.316;10.182;2022-09-21T12:52:25;18.50;76.20
37478;DHT22;23334;54.316;10.182;2022-09-21T12:58:26;18.60;78.50
37478;DHT22;23334;54.316;10.182;2022-09-21T13:01:00;18.60;74.70
37478;DHT22;23334;54.316;10.182;2022-09-21T13:03:40;18.60;75.10
37478;DHT22;23334;54.316;10.182;2022-09-21T13:09:00;18.50;74.40
37478;DHT22;23334;54.316;10.182;2022-09-21T13:11:26;18.60;74.30
37478;DHT22;23334;54.316;10.182;2022-09-21T13:13:56;18.70;73.60
37478;DHT22;23334;54.316;10.182;2022-09-21T13:16:26;18.70;74.20
37478;DHT22;23334;54.316;10.182;2022-09-21T13:19:25;18.90;72.10
37478;DHT22;23334;54.316;10.182;2022-09-21T13:24:56;18.90;67.60
37478;DHT22;23334;54.316;10.182;2022-09-21T13:33:30;18.90;70.40
37478;DHT22;23334;54.316;10.182;2022-09-21T13:54:21;18.90;79.60
37478;DHT22;23334;54.316;10.182;2022-09-21T13:57:02;18.90;79.10
37478;DHT22;23334;54.316;10.182;2022-09-21T13:59:30;18.90;80.60
37478;DHT22;23334;54.316;10.182;2022-09-21T14:01:56;18.90;81.60
37478;DHT22;23334;54.316;10.182;2022-09-21T14:04:28;19.20;77.00
37478;DHT22;23334;54.316;10.182;2022-09-21T14:06:56;19.20;77.40
37478;DHT22;23334;54.316;10.182;2022-09-21T14:09:25;19.30;77.10
37478;DHT22;23334;54.316;10.182;2022-09-21T14:11:57;19.40;72.10
37478;DHT22;23334;54.316;10.182;2022-09-21T14:14:32;19.20;71.20
37478;DHT22;23334;54.316;10.182;2022-09-21T14:16:59;19.20;70.20
37478;DHT22;23334;54.316;10.182;2022-09-21T14:27:15;19.30;72.20
37478;DHT22;23334;54.316;10.182;2022-09-21T14:32:19;19.50;74.50
37478;DHT22;23334;54.316;10.182;2022-09-21T14:34:47;19.40;75.10
37478;DHT22;23334;54.316;10.182;2022-09-21T14:37:32;19.20;76.40
37478;DHT22;23334;54.316;10.182;2022-09-21T14:40:03;19.00;79.50
37478;DHT22;23334;54.316;10.182;2022-09-21T14:42:31;18.90;80.60
37478;DHT22;23334;54.316;10.182;2022-09-21T14:45:01;18.50;85.10
37478;DHT22;23334;54.316;10.182;2022-09-21T14:47:40;18.50;87.10
37478;DHT22;23334;54.316;10.182;2022-09-21T14:50:30;18.40;86.10
37478;DHT22;23334;54.316;10.182;2022-09-21T14:53:20;18.00;88.30
37478;DHT22;23334;54.316;10.182;2022-09-21T14:56:16;17.90;90.00
37478;DHT22;23334;54.316;10.182;2022-09-21T15:43:04;16.80;99.90
37478;DHT22;23334;54.316;10.182;2022-09-21T15:45:57;16.80;99.90
37478;DHT22;23334;54.316;10.182;2022-09-21T15:48:34;16.60;99.90
37478;DHT22;23334;54.316;10.182;2022-09-21T15:51:13;16.60;99.90
37478;DHT22;23334;54.316;10.182;2022-09-21T15:53:43;16.50;99.90
37478;DHT22;23334;54.316;10.182;2022-09-21T15:56:23;16.40;99.90
37478;DHT22;23334;54.316;10.182;2022-09-21T15:58:51;16.20;99.90
37478;DHT22;23334;54.316;10.182;2022-09-21T16:01:22;15.90;99.90
37478;DHT22;23334;54.316;10.182;2022-09-21T16:04:00;15.80;99.90
37478;DHT22;23334;54.316;10.182;2022-09-21T16:06:37;15.60;99.90
37478;DHT22;23334;54.316;10.182;2022-09-21T16:11:48;15.40;99.90
37478;DHT22;23334;54.316;10.182;2022-09-21T16:14:14;15.30;99.90
37478;DHT22;23334;54.316;10.182;2022-09-21T16:20:02;15.20;99.90
37478;DHT22;23334;54.316;10.182;2022-09-21T16:22:36;15.00;99.90
37478;DHT22;23334;54.316;10.182;2022-09-21T16:25:18;15.00;99.90
37478;DHT22;23334;54.316;10.182;2022-09-21T16:27:56;14.90;99.90
37478;DHT22;23334;54.316;10.182;2022-09-21T16:30:49;14.80;99.90
37478;DHT22;23334;54.316;10.182;2022-09-21T16:33:35;14.70;99.90
37478;DHT22;23334;54.316;10.182;2022-09-21T16:38:51;14.50;99.90
37478;DHT22;23334;54.316;10.182;2022-09-21T16:41:25;14.40;99.90
37478;DHT22;23334;54.316;10.182;2022-09-21T16:43:57;14.40;99.90
37478;DHT22;23334;54.316;10.182;2022-09-21T16:46:24;16.50;99.90
37478;DHT22;23334;54.316;10.182;2022-09-21T16:48:51;14.30;99.90
37478;DHT22;23334;54.316;10.182;2022-09-21T16:51:20;14.30;99.90
37478;DHT22;23334;54.316;10.182;2022-09-21T16:53:50;14.30;99.90
37478;DHT22;23334;54.316;10.182;2022-09-21T16:56:16;14.30;99.90
37478;DHT22;23334;54.316;10.182;2022-09-21T16:58:42;14.20;99.90
37478;DHT22;23334;54.316;10.182;2022-09-21T17:01:11;14.10;99.90
37478;DHT22;23334;54.316;10.182;2022-09-21T17:03:38;14.20;99.90
37478;DHT22;23334;54.316;10.182;2022-09-21T17:23:10;14.00;99.90
37478;DHT22;23334;54.316;10.182;2022-09-21T17:25:36;13.90;99.90
37478;DHT22;23334;54.316;10.182;2022-09-21T17:28:03;13.90;99.90
37478;DHT22;23334;54.316;10.182;2022-09-21T17:30:35;13.70;99.90
37478;DHT22;23334;54.316;10.182;2022-09-21T17:35:32;13.70;99.90
37478;DHT22;23334;54.316;10.182;2022-09-21T17:38:00;13.60;99.90
37478;DHT22;23334;54.316;10.182;2022-09-21T17:40:27;13.50;99.90
37478;DHT22;23334;54.316;10.182;2022-09-21T17:45:41;13.60;99.90
37478;DHT22;23334;54.316;10.182;2022-09-21T17:48:18;13.50;99.90
37478;DHT22;23334;54.316;10.182;2022-09-21T17:50:44;13.50;99.90
37478;DHT22;23334;54.316;10.182;2022-09-21T17:53:10;13.50;99.90
37478;DHT22;23334;54.316;10.182;2022-09-21T17:55:59;13.50;99.90
37478;DHT22;23334;54.316;10.182;2022-09-21T17:58:53;13.40;99.90
37478;DHT22;23334;54.316;10.182;2022-09-21T18:01:33;13.40;99.90
37478;DHT22;23334;54.316;10.182;2022-09-21T18:04:00;13.30;99.90
37478;DHT22;23334;54.316;10.182;2022-09-21T18:06:26;13.30;99.90
37478;DHT22;23334;54.316;10.182;2022-09-21T18:08:52;13.30;99.90
37478;DHT22;23334;54.316;10.182;2022-09-21T18:14:30;13.30;99.90
37478;DHT22;23334;54.316;10.182;2022-09-21T18:17:50;13.30;99.90
37478;DHT22;23334;54.316;10.182;2022-09-21T18:20:23;13.30;99.90
37478;DHT22;23334;54.316;10.182;2022-09-21T18:23:09;13.30;99.90
37478;DHT22;23334;54.316;10.182;2022-09-21T18:25:41;13.30;99.90
37478;DHT22;23334;54.316;10.182;2022-09-21T18:28:34;13.20;99.90
37478;DHT22;23334;54.316;10.182;2022-09-21T18:31:26;13.20;99.90
37478;DHT22;23334;54.316;10.182;2022-09-21T18:34:24;13.00;99.90
37478;DHT22;23334;54.316;10.182;2022-09-21T18:37:10;12.90;99.90
37478;DHT22;23334;54.316;10.182;2022-09-21T18:40:02;12.70;99.90
37478;DHT22;23334;54.316;10.182;2022-09-21T18:42:43;12.30;99.90
37478;DHT22;23334;54.316;10.182;2022-09-21T18:45:24;12.40;99.90
37478;DHT22;23334;54.316;10.182;2022-09-21T18:48:20;12.30;99.90
37478;DHT22;23334;54.316;10.182;2022-09-21T18:51:45;12.20;99.90
37478;DHT22;23334;54.316;10.182;2022-09-21T18:53:55;12.10;99.90
37478;DHT22;23334;54.316;10.182;2022-09-21T18:56:25;12.10;99.90
37478;DHT22;23334;54.316;10.182;2022-09-21T18:58:52;12.00;99.90
37478;DHT22;23334;54.316;10.182;2022-09-21T19:01:18;11.90;99.90
37478;DHT22;23334;54.316;10.182;2022-09-21T19:03:46;11.90;99.90
37478;DHT22;23334;54.316;10.182;2022-09-21T19:12:13;11.60;99.90
37478;DHT22;23334;54.316;10.182;2022-09-21T19:17:52;11.40;99.90
37478;DHT22;23334;54.316;10.182;2022-09-21T19:20:33;11.30;99.90
37478;DHT22;23334;54.316;10.182;2022-09-21T19:23:15;11.30;99.90
37478;DHT22;23334;54.316;10.182;2022-09-21T19:25:47;11.30;99.90
37478;DHT22;23334;54.316;10.182;2022-09-21T19:31:07;11.10;99.90
37478;DHT22;23334;54.316;10.182;2022-09-21T19:33:34;11.00;99.90
37478;DHT22;23334;54.316;10.182;2022-09-21T19:38:27;10.90;99.90
37478;DHT22;23334;54.316;10.182;2022-09-21T19:41:03;10.80;99.90
37478;DHT22;23334;54.316;10.182;2022-09-21T19:43:40;10.80;99.90
37478;DHT22;23334;54.316;10.182;2022-09-21T19:48:47;10.60;99.90
37478;DHT22;23334;54.316;10.182;2022-09-21T19:56:29;10.50;99.90
37478;DHT22;23334;54.316;10.182;2022-09-21T19:59:14;10.50;99.90
37478;DHT22;23334;54.316;10.182;2022-09-21T20:02:01;10.50;99.90
37478;DHT22;23334;54.316;10.182;2022-09-21T20:04:50;10.60;99.90
37478;DHT22;23334;54.316;10.182;2022-09-21T20:07:43;10.50;99.90
37478;DHT22;23334;54.316;10.182;2022-09-21T20:13:19;10.50;99.90
37478;DHT22;23334;54.316;10.182;2022-09-21T20:18:51;10.40;99.90
37478;DHT22;23334;54.316;10.182;2022-09-21T20:21:21;10.40;99.90
37478;DHT22;23334;54.316;10.182;2022-09-21T20:23:49;10.30;99.90
37478;DHT22;23334;54.316;10.182;2022-09-21T20:26:23;10.20;99.90
37478;DHT22;23334;54.316;10.182;2022-09-21T20:28:50;10.10;99.90
37478;DHT22;23334;54.316;10.182;2022-09-21T20:31:18;10.00;99.90
37478;DHT22;23334;54.316;10.182;2022-09-21T20:33:44;9.90;99.90
37478;DHT22;23334;54.316;10.182;2022-09-21T20:38:35;9.70;99.90
37478;DHT22;23334;54.316;10.182;2022-09-21T20:41:01;9.70;99.90
37478;DHT22;23334;54.316;10.182;2022-09-21T20:43:26;9.60;99.90
37478;DHT22;23334;54.316;10.182;2022-09-21T20:45:53;9.50;99.90
37478;DHT22;23334;54.316;10.182;2022-09-21T20:48:22;9.50;99.90
37478;DHT22;23334;54.316;10.182;2022-09-21T20:50:48;9.40;99.90
37478;DHT22;23334;54.316;10.182;2022-09-21T20:53:15;9.40;99.90
37478;DHT22;23334;54.316;10.182;2022-09-21T20:55:42;9.30;99.90
37478;DHT22;23334;54.316;10.182;2022-09-21T20:58:16;9.20;99.90
37478;DHT22;23334;54.316;10.182;2022-09-21T21:03:10;9.20;99.90
37478;DHT22;23334;54.316;10.182;2022-09-21T21:05:37;9.20;99.90
37478;DHT22;23334;54.316;10.182;2022-09-21T21:08:02;9.20;99.90
37478;DHT22;23334;54.316;10.182;2022-09-21T21:10:29;9.20;99.90
37478;DHT22;23334;54.316;10.182;2022-09-21T21:12:57;9.30;99.90
37478;DHT22;23334;54.316;10.182;2022-09-21T21:15:22;9.20;99.90
37478;DHT22;23334;54.316;10.182;2022-09-21T21:17:48;9.40;99.90
37478;DHT22;23334;54.316;10.182;2022-09-21T21:20:14;9.40;99.90
37478;DHT22;23334;54.316;10.182;2022-09-21T21:22:41;9.50;99.90
37478;DHT22;23334;54.316;10.182;2022-09-21T21:25:07;9.30;99.90
37478;DHT22;23334;54.316;10.182;2022-09-21T21:27:33;9.50;99.90
37478;DHT22;23334;54.316;10.182;2022-09-21T21:30:00;9.40;99.90
37478;DHT22;23334;54.316;10.182;2022-09-21T21:32:26;9.40;99.90
37478;DHT22;23334;54.316;10.182;2022-09-21T21:34:53;9.40;99.90
37478;DHT22;23334;54.316;10.182;2022-09-21T21:37:20;9.30;99.90
37478;DHT22;23334;54.316;10.182;2022-09-21T21:39:47;9.40;99.90
37478;DHT22;23334;54.316;10.182;2022-09-21T21:42:13;9.40;99.90
37478;DHT22;23334;54.316;10.182;2022-09-21T21:44:39;9.50;99.90
37478;DHT22;23334;54.316;10.182;2022-09-21T21:47:05;9.50;99.90
37478;DHT22;23334;54.316;10.182;2022-09-21T21:49:30;9.50;99.90
37478;DHT22;23334;54.316;10.182;2022-09-21T21:51:56;9.50;99.90
37478;DHT22;23334;54.316;10.182;2022-09-21T21:54:23;9.60;99.90
37478;DHT22;23334;54.316;10.182;2022-09-21T21:56:51;9.60;99.90
37478;DHT22;23334;54.316;10.182;2022-09-21T21:59:17;9.50;99.90
37478;DHT22;23334;54.316;10.182;2022-09-21T22:01:43;9.60;99.90
37478;DHT22;23334;54.316;10.182;2022-09-21T22:04:09;9.60;99.90
37478;DHT22;23334;54.316;10.182;2022-09-21T22:06:36;9.60;99.90
37478;DHT22;23334;54.316;10.182;2022-09-21T22:09:04;9.40;99.90
37478;DHT22;23334;54.316;10.182;2022-09-21T22:11:30;9.40;99.90
37478;DHT22;23334;54.316;10.182;2022-09-21T22:13:58;9.40;99.90
37478;DHT22;23334;54.316;10.182;2022-09-21T22:16:25;9.30;99.90
37478;DHT22;23334;54.316;10.182;2022-09-21T22:18:52;9.20;99.90
37478;DHT22;23334;54.316;10.182;2022-09-21T22:23:51;9.30;99.90
37478;DHT22;23334;54.316;10.182;2022-09-21T22:26:18;9.20;99.90
37478;DHT22;23334;54.316;10.182;2022-09-21T22:28:46;9.10;99.90
37478;DHT22;23334;54.316;10.182;2022-09-21T22:31:14;9.10;99.90
37478;DHT22;23334;54.316;10.182;2022-09-21T22:33:40;9.00;99.90
37478;DHT22;23334;54.316;10.182;2022-09-21T22:36:17;8.80;99.90
37478;DHT22;23334;54.316;10.182;2022-09-21T22:38:44;9.10;99.90
37478;DHT22;23334;54.316;10.182;2022-09-21T22:41:14;9.00;99.90
37478;DHT22;23334;54.316;10.182;2022-09-21T22:43:44;8.90;99.90